sensor_id;sensor_type;location;lat;lon;timestamp;pressure;altitude;pressure_sealevel;temperature;humidity
75886;BME280;64561;44.018;10.144;2023-12-22T00:02:25;100502.63;;;10.27;100.00
75886;BME280;64561;44.018;10.144;2023-12-22T00:04:55;100512.91;;;10.30;100.00
75886;BME280;64561;44.018;10.144;2023-12-22T00:07:23;100518.00;;;10.30;100.00
75886;BME280;64561;44.018;10.144;2023-12-22T00:09:51;100511.91;;;10.25;100.00
75886;BME280;64561;44.018;10.144;2023-12-22T00:12:18;100505.22;;;10.30;100.00
75886;BME280;64561;44.018;10.144;2023-12-22T00:14:45;100513.88;;;10.37;100.00
75886;BME280;64561;44.018;10.144;2023-12-22T00:17:12;100496.00;;;10.39;100.00
75886;BME280;64561;44.018;10.144;2023-12-22T00:19:39;100474.69;;;10.38;100.00
75886;BME280;64561;44.018;10.144;2023-12-22T00:22:07;100479.81;;;10.38;100.00
75886;BME280;64561;44.018;10.144;2023-12-22T00:24:34;100467.91;;;10.40;100.00
75886;BME280;64561;44.018;10.144;2023-12-22T00:27:02;100435.50;;;10.39;100.00
75886;BME280;64561;44.018;10.144;2023-12-22T00:29:30;100445.84;;;10.45;100.00
75886;BME280;64561;44.018;10.144;2023-12-22T00:31:57;100440.69;;;10.44;100.00
75886;BME280;64561;44.018;10.144;2023-12-22T00:34:24;100439.91;;;10.48;100.00
75886;BME280;64561;44.018;10.144;2023-12-22T00:36:51;100431.44;;;10.52;100.00
75886;BME280;64561;44.018;10.144;2023-12-22T00:39:19;100415.25;;;10.51;100.00
75886;BME280;64561;44.018;10.144;2023-12-22T00:41:46;100421.25;;;10.53;100.00
75886;BME280;64561;44.018;10.144;2023-12-22T00:44:13;100431.44;;;10.52;100.00
75886;BME280;64561;44.018;10.144;2023-12-22T00:46:41;100433.19;;;10.53;100.00
75886;BME280;64561;44.018;10.144;2023-12-22T00:49:08;100422.06;;;10.52;100.00
75886;BME280;64561;44.018;10.144;2023-12-22T00:51:35;100418.66;;;10.50;100.00
75886;BME280;64561;44.018;10.144;2023-12-22T00:54:02;100410.19;;;10.55;100.00
75886;BME280;64561;44.018;10.144;2023-12-22T00:56:30;100400.78;;;10.53;100.00
75886;BME280;64561;44.018;10.144;2023-12-22T00:58:57;100417.78;;;10.50;100.00
75886;BME280;64561;44.018;10.144;2023-12-22T01:01:37;100412.50;;;10.41;100.00
75886;BME280;64561;44.018;10.144;2023-12-22T01:04:04;100416.63;;;10.33;100.00
75886;BME280;64561;44.018;10.144;2023-12-22T01:06:32;100413.00;;;10.23;100.00
75886;BME280;64561;44.018;10.144;2023-12-22T01:08:59;100399.16;;;10.13;100.00
75886;BME280;64561;44.018;10.144;2023-12-22T01:11:26;100411.16;;;10.16;100.00
75886;BME280;64561;44.018;10.144;2023-12-22T01:13:53;100419.78;;;10.22;100.00
75886;BME280;64561;44.018;10.144;2023-12-22T01:16:21;100427.44;;;10.21;100.00
75886;BME280;64561;44.018;10.144;2023-12-22T01:18:50;100447.00;;;10.17;100.00
75886;BME280;64561;44.018;10.144;2023-12-22T01:21:17;100453.53;;;10.04;100.00
75886;BME280;64561;44.018;10.144;2023-12-22T01:23:45;100460.94;;;9.91;100.00
75886;BME280;64561;44.018;10.144;2023-12-22T01:26:12;100462.31;;;9.75;100.00
75886;BME280;64561;44.018;10.144;2023-12-22T01:28:39;100451.16;;;9.71;100.00
75886;BME280;64561;44.018;10.144;2023-12-22T01:31:07;100448.53;;;9.68;100.00
75886;BME280;64561;44.018;10.144;2023-12-22T01:33:34;100442.41;;;9.60;100.00
75886;BME280;64561;44.018;10.144;2023-12-22T01:36:01;100444.03;;;9.56;100.00
75886;BME280;64561;44.018;10.144;2023-12-22T01:38:29;100425.34;;;9.57;100.00
75886;BME280;64561;44.018;10.144;2023-12-22T01:40:56;100439.09;;;9.66;100.00
75886;BME280;64561;44.018;10.144;2023-12-22T01:43:23;100453.63;;;9.67;100.00
75886;BME280;64561;44.018;10.144;2023-12-22T01:46:00;100453.63;;;9.67;100.00
75886;BME280;64561;44.018;10.144;2023-12-22T01:48:29;100439.47;;;9.81;100.00
75886;BME280;64561;44.018;10.144;2023-12-22T01:50:58;100441.03;;;9.76;100.00
75886;BME280;64561;44.018;10.144;2023-12-22T01:53:27;100428.97;;;9.69;100.00
75886;BME280;64561;44.018;10.144;2023-12-22T01:55:55;100421.09;;;9.59;100.00
75886;BME280;64561;44.018;10.144;2023-12-22T01:58:23;100426.97;;;9.55;100.00
75886;BME280;64561;44.018;10.144;2023-12-22T02:00:52;100436.06;;;9.43;100.00
75886;BME280;64561;44.018;10.144;2023-12-22T02:03:21;100406.88;;;9.30;100.00
75886;BME280;64561;44.018;10.144;2023-12-22T02:05:48;100392.13;;;9.18;100.00
75886;BME280;64561;44.018;10.144;2023-12-22T02:08:17;100391.88;;;9.07;100.00
75886;BME280;64561;44.018;10.144;2023-12-22T02:10:45;100390.91;;;9.02;100.00
75886;BME280;64561;44.018;10.144;2023-12-22T02:13:13;100389.97;;;8.97;100.00
75886;BME280;64561;44.018;10.144;2023-12-22T02:15:40;100394.06;;;8.92;100.00
75886;BME280;64561;44.018;10.144;2023-12-22T02:18:15;100395.00;;;8.94;100.00
75886;BME280;64561;44.018;10.144;2023-12-22T02:20:44;100390.84;;;8.99;100.00
75886;BME280;64561;44.018;10.144;2023-12-22T02:23:11;100379.69;;;8.94;100.00
75886;BME280;64561;44.018;10.144;2023-12-22T02:25:38;100394.91;;;8.91;100.00
75886;BME280;64561;44.018;10.144;2023-12-22T02:28:09;100412.72;;;8.89;100.00
75886;BME280;64561;44.018;10.144;2023-12-22T02:30:54;100401.25;;;8.72;100.00
75886;BME280;64561;44.018;10.144;2023-12-22T02:33:24;100408.66;;;8.63;100.00
75886;BME280;64561;44.018;10.144;2023-12-22T02:35:58;100404.19;;;8.54;100.00
75886;BME280;64561;44.018;10.144;2023-12-22T02:38:31;100403.88;;;8.42;100.00
75886;BME280;64561;44.018;10.144;2023-12-22T02:40:58;100402.91;;;8.37;100.00
75886;BME280;64561;44.018;10.144;2023-12-22T02:43:27;100412.88;;;8.28;100.00
75886;BME280;64561;44.018;10.144;2023-12-22T02:45:55;100412.03;;;8.29;100.00
75886;BME280;64561;44.018;10.144;2023-12-22T02:48:22;100403.59;;;8.31;100.00
75886;BME280;64561;44.018;10.144;2023-12-22T02:50:49;100398.50;;;8.31;100.00
75886;BME280;64561;44.018;10.144;2023-12-22T02:53:17;100393.50;;;8.34;100.00
75886;BME280;64561;44.018;10.144;2023-12-22T02:55:44;100407.88;;;8.32;100.00
75886;BME280;64561;44.018;10.144;2023-12-22T02:58:11;100409.47;;;8.29;100.00
75886;BME280;64561;44.018;10.144;2023-12-22T03:00:38;100408.69;;;8.31;100.00
75886;BME280;64561;44.018;10.144;2023-12-22T03:03:07;100411.16;;;8.28;100.00
75886;BME280;64561;44.018;10.144;2023-12-22T03:05:34;100413.56;;;8.22;100.00
75886;BME280;64561;44.018;10.144;2023-12-22T03:08:01;100400.03;;;8.24;100.00
75886;BME280;64561;44.018;10.144;2023-12-22T03:10:29;100419.28;;;8.15;100.00
75886;BME280;64561;44.018;10.144;2023-12-22T03:12:56;100400.34;;;8.05;100.00
75886;BME280;64561;44.018;10.144;2023-12-22T03:15:23;100395.94;;;7.98;100.00
75886;BME280;64561;44.018;10.144;2023-12-22T03:17:50;100392.38;;;7.93;100.00
75886;BME280;64561;44.018;10.144;2023-12-22T03:20:18;100376.31;;;7.95;100.00
75886;BME280;64561;44.018;10.144;2023-12-22T03:22:45;100365.19;;;7.92;100.00
75886;BME280;64561;44.018;10.144;2023-12-22T03:25:12;100364.28;;;7.90;100.00
75886;BME280;64561;44.018;10.144;2023-12-22T03:27:40;100376.50;;;7.71;100.00
75886;BME280;64561;44.018;10.144;2023-12-22T03:30:07;100375.41;;;7.63;100.00
75886;BME280;64561;44.018;10.144;2023-12-22T03:32:35;100369.31;;;7.58;100.00
75886;BME280;64561;44.018;10.144;2023-12-22T03:35:02;100371.53;;;7.46;100.00
75886;BME280;64561;44.018;10.144;2023-12-22T03:37:31;100365.47;;;7.42;100.00
75886;BME280;64561;44.018;10.144;2023-12-22T03:39:59;100369.72;;;7.42;100.00
75886;BME280;64561;44.018;10.144;2023-12-22T03:42:26;100391.53;;;7.33;100.00
75886;BME280;64561;44.018;10.144;2023-12-22T03:44:53;100386.41;;;7.32;100.00
75886;BME280;64561;44.018;10.144;2023-12-22T03:47:20;100392.25;;;7.29;100.00
75886;BME280;64561;44.018;10.144;2023-12-22T03:49:48;100389.47;;;7.22;100.00
75886;BME280;64561;44.018;10.144;2023-12-22T03:52:15;100387.00;;;7.23;100.00
75886;BME280;64561;44.018;10.144;2023-12-22T03:54:42;100389.66;;;7.28;100.00
75886;BME280;64561;44.018;10.144;2023-12-22T03:57:09;100392.44;;;7.36;100.00
75886;BME280;64561;44.018;10.144;2023-12-22T03:59:36;100389.13;;;7.38;100.00
75886;BME280;64561;44.018;10.144;2023-12-22T04:02:04;100391.75;;;7.41;100.00
75886;BME280;64561;44.018;10.144;2023-12-22T04:04:31;100380.41;;;7.30;100.00
75886;BME280;64561;44.018;10.144;2023-12-22T04:06:58;100376.31;;;7.35;100.00
75886;BME280;64561;44.018;10.144;2023-12-22T04:09:25;100351.59;;;7.02;100.00
75886;BME280;64561;44.018;10.144;2023-12-22T04:11:53;100360.31;;;7.10;100.00
75886;BME280;64561;44.018;10.144;2023-12-22T04:14:20;100364.84;;;6.92;100.00
75886;BME280;64561;44.018;10.144;2023-12-22T04:16:47;100343.88;;;6.99;100.00
75886;BME280;64561;44.018;10.144;2023-12-22T04:19:14;100333.44;;;6.92;100.00
75886;BME280;64561;44.018;10.144;2023-12-22T04:21:42;100356.31;;;6.90;100.00
75886;BME280;64561;44.018;10.144;2023-12-22T04:24:09;100369.16;;;6.95;100.00
75886;BME280;64561;44.018;10.144;2023-12-22T04:26:37;100356.44;;;6.95;100.00
75886;BME280;64561;44.018;10.144;2023-12-22T04:29:04;100353.75;;;6.90;100.00
75886;BME280;64561;44.018;10.144;2023-12-22T04:31:31;100376.56;;;6.87;100.00
75886;BME280;64561;44.018;10.144;2023-12-22T04:34:01;100373.94;;;6.85;100.00
75886;BME280;64561;44.018;10.144;2023-12-22T04:36:28;100373.09;;;6.85;100.00
75886;BME280;64561;44.018;10.144;2023-12-22T04:38:56;100362.91;;;6.85;100.00
75886;BME280;64561;44.018;10.144;2023-12-22T04:41:23;100378.13;;;6.83;100.00
75886;BME280;64561;44.018;10.144;2023-12-22T04:43:50;100373.75;;;6.79;100.00
75886;BME280;64561;44.018;10.144;2023-12-22T04:46:18;100374.94;;;6.63;100.00
75886;BME280;64561;44.018;10.144;2023-12-22T04:48:46;100389.19;;;6.58;100.00
75886;BME280;64561;44.018;10.144;2023-12-22T04:51:13;100395.28;;;6.63;100.00
75886;BME280;64561;44.018;10.144;2023-12-22T04:53:41;100382.94;;;6.74;100.00
75886;BME280;64561;44.018;10.144;2023-12-22T04:56:08;100371.97;;;6.77;100.00
75886;BME280;64561;44.018;10.144;2023-12-22T04:58:35;100373.84;;;6.82;100.00
75886;BME280;64561;44.018;10.144;2023-12-22T05:01:02;100378.25;;;6.88;100.00
75886;BME280;64561;44.018;10.144;2023-12-22T05:03:30;100389.41;;;6.92;100.00
75886;BME280;64561;44.018;10.144;2023-12-22T05:05:57;100392.56;;;6.84;100.00
75886;BME280;64561;44.018;10.144;2023-12-22T05:08:24;100393.41;;;6.83;100.00
75886;BME280;64561;44.018;10.144;2023-12-22T05:10:51;100384.91;;;6.83;100.00
75886;BME280;64561;44.018;10.144;2023-12-22T05:13:19;100386.63;;;6.84;100.00
75886;BME280;64561;44.018;10.144;2023-12-22T05:15:46;100401.16;;;6.88;100.00
75886;BME280;64561;44.018;10.144;2023-12-22T05:18:13;100402.66;;;6.81;100.00
75886;BME280;64561;44.018;10.144;2023-12-22T05:20:41;100407.66;;;6.80;100.00
75886;BME280;64561;44.018;10.144;2023-12-22T05:23:08;100407.72;;;6.81;100.00
75886;BME280;64561;44.018;10.144;2023-12-22T05:25:35;100405.09;;;6.78;100.00
75886;BME280;64561;44.018;10.144;2023-12-22T05:28:03;100423.63;;;6.74;100.00
75886;BME280;64561;44.018;10.144;2023-12-22T05:30:30;100416.97;;;6.79;100.00
75886;BME280;64561;44.018;10.144;2023-12-22T05:32:57;100413.63;;;6.80;100.00
75886;BME280;64561;44.018;10.144;2023-12-22T05:35:24;100428.16;;;6.84;100.00
75886;BME280;64561;44.018;10.144;2023-12-22T05:37:51;100419.28;;;6.72;100.00
75886;BME280;64561;44.018;10.144;2023-12-22T05:40:19;100403.19;;;6.71;100.00
75886;BME280;64561;44.018;10.144;2023-12-22T05:42:46;100408.16;;;6.68;100.00
75886;BME280;64561;44.018;10.144;2023-12-22T05:45:14;100413.94;;;6.64;100.00
75886;BME280;64561;44.018;10.144;2023-12-22T05:47:42;100416.47;;;6.64;100.00
75886;BME280;64561;44.018;10.144;2023-12-22T05:50:09;100417.44;;;6.68;100.00
75886;BME280;64561;44.018;10.144;2023-12-22T05:52:38;100401.31;;;6.67;100.00
75886;BME280;64561;44.018;10.144;2023-12-22T05:55:05;100402.97;;;6.65;100.00
75886;BME280;64561;44.018;10.144;2023-12-22T05:57:33;100407.28;;;6.68;100.00
75886;BME280;64561;44.018;10.144;2023-12-22T06:00:00;100434.91;;;6.57;100.00
75886;BME280;64561;44.018;10.144;2023-12-22T06:02:31;100440.66;;;6.53;100.00
75886;BME280;64561;44.018;10.144;2023-12-22T06:04:58;100433.72;;;6.47;100.00
75886;BME280;64561;44.018;10.144;2023-12-22T06:07:26;100434.63;;;6.49;100.00
75886;BME280;64561;44.018;10.144;2023-12-22T06:09:53;100433.75;;;6.49;100.00
75886;BME280;64561;44.018;10.144;2023-12-22T06:12:21;100434.84;;;6.31;100.00
75886;BME280;64561;44.018;10.144;2023-12-22T06:14:48;100430.50;;;6.27;100.00
75886;BME280;64561;44.018;10.144;2023-12-22T06:17:15;100445.13;;;6.34;100.00
75886;BME280;64561;44.018;10.144;2023-12-22T06:19:42;100458.03;;;6.40;100.00
75886;BME280;64561;44.018;10.144;2023-12-22T06:22:09;100450.53;;;6.44;100.00
75886;BME280;64561;44.018;10.144;2023-12-22T06:24:36;100443.47;;;6.35;100.00
75886;BME280;64561;44.018;10.144;2023-12-22T06:27:04;100457.81;;;6.34;100.00
75886;BME280;64561;44.018;10.144;2023-12-22T06:29:33;100465.78;;;6.44;100.00
75886;BME280;64561;44.018;10.144;2023-12-22T06:32:01;100478.53;;;6.45;100.00
75886;BME280;64561;44.018;10.144;2023-12-22T06:34:28;100484.56;;;6.47;100.00
75886;BME280;64561;44.018;10.144;2023-12-22T06:36:55;100480.13;;;6.41;100.00
75886;BME280;64561;44.018;10.144;2023-12-22T06:39:22;100485.00;;;6.35;100.00
75886;BME280;64561;44.018;10.144;2023-12-22T06:41:49;100493.06;;;6.25;100.00
75886;BME280;64561;44.018;10.144;2023-12-22T06:44:18;100489.63;;;6.23;100.00
75886;BME280;64561;44.018;10.144;2023-12-22T06:46:45;100487.13;;;6.25;100.00
75886;BME280;64561;44.018;10.144;2023-12-22T06:49:12;100486.72;;;6.36;100.00
75886;BME280;64561;44.018;10.144;2023-12-22T06:51:40;100493.47;;;6.36;100.00
75886;BME280;64561;44.018;10.144;2023-12-22T06:54:07;100496.00;;;6.36;100.00
75886;BME280;64561;44.018;10.144;2023-12-22T06:56:37;100506.53;;;6.47;100.00
75886;BME280;64561;44.018;10.144;2023-12-22T06:59:06;100512.53;;;6.49;100.00
75886;BME280;64561;44.018;10.144;2023-12-22T07:01:34;100520.28;;;6.52;100.00
75886;BME280;64561;44.018;10.144;2023-12-22T07:04:04;100528.72;;;6.51;100.00
75886;BME280;64561;44.018;10.144;2023-12-22T07:06:32;100532.13;;;6.51;100.00
75886;BME280;64561;44.018;10.144;2023-12-22T07:11:45;100512.44;;;6.46;100.00
75886;BME280;64561;44.018;10.144;2023-12-22T07:14:13;100515.59;;;6.38;100.00
75886;BME280;64561;44.018;10.144;2023-12-22T07:16:40;100524.09;;;6.40;100.00
75886;BME280;64561;44.018;10.144;2023-12-22T07:19:09;100527.44;;;6.38;100.00
75886;BME280;64561;44.018;10.144;2023-12-22T07:21:37;100520.34;;;6.29;100.00
75886;BME280;64561;44.018;10.144;2023-12-22T07:24:05;100521.25;;;6.31;100.00
75886;BME280;64561;44.018;10.144;2023-12-22T07:26:33;100533.31;;;6.37;100.00
75886;BME280;64561;44.018;10.144;2023-12-22T07:29:00;100532.41;;;6.35;100.00
75886;BME280;64561;44.018;10.144;2023-12-22T07:31:27;100537.72;;;6.41;100.00
75886;BME280;64561;44.018;10.144;2023-12-22T07:33:55;100540.13;;;6.38;100.00
75886;BME280;64561;44.018;10.144;2023-12-22T07:36:22;100538.56;;;6.41;100.00
75886;BME280;64561;44.018;10.144;2023-12-22T07:38:49;100548.19;;;6.50;100.00
75886;BME280;64561;44.018;10.144;2023-12-22T07:41:16;100549.19;;;6.55;100.00
75886;BME280;64561;44.018;10.144;2023-12-22T07:43:46;100560.13;;;6.53;100.00
75886;BME280;64561;44.018;10.144;2023-12-22T07:46:20;100562.91;;;6.59;100.00
75886;BME280;64561;44.018;10.144;2023-12-22T07:48:50;100560.41;;;6.60;100.00
75886;BME280;64561;44.018;10.144;2023-12-22T07:51:18;100554.50;;;6.61;100.00
75886;BME280;64561;44.018;10.144;2023-12-22T07:53:46;100571.88;;;6.73;100.00
75886;BME280;64561;44.018;10.144;2023-12-22T07:56:13;100569.41;;;6.75;100.00
75886;BME280;64561;44.018;10.144;2023-12-22T07:58:41;100559.97;;;6.72;100.00
75886;BME280;64561;44.018;10.144;2023-12-22T08:01:08;100560.09;;;6.75;100.00
75886;BME280;64561;44.018;10.144;2023-12-22T08:03:35;100567.09;;;6.82;100.00
75886;BME280;64561;44.018;10.144;2023-12-22T08:06:04;100578.09;;;6.81;100.00
75886;BME280;64561;44.018;10.144;2023-12-22T08:08:34;100568.97;;;6.86;100.00
75886;BME280;64561;44.018;10.144;2023-12-22T08:11:04;100586.31;;;6.98;100.00
75886;BME280;64561;44.018;10.144;2023-12-22T08:13:45;100583.06;;;7.02;100.00
75886;BME280;64561;44.018;10.144;2023-12-22T08:16:17;100594.03;;;7.25;100.00
75886;BME280;64561;44.018;10.144;2023-12-22T08:18:51;100592.75;;;7.38;100.00
75886;BME280;64561;44.018;10.144;2023-12-22T08:21:36;100594.81;;;7.50;100.00
75886;BME280;64561;44.018;10.144;2023-12-22T08:24:20;100590.06;;;7.61;100.00
75886;BME280;64561;44.018;10.144;2023-12-22T08:26:52;100597.09;;;7.68;100.00
75886;BME280;64561;44.018;10.144;2023-12-22T08:29:22;100604.97;;;7.75;100.00
75886;BME280;64561;44.018;10.144;2023-12-22T08:31:50;100603.63;;;7.87;100.00
75886;BME280;64561;44.018;10.144;2023-12-22T08:34:17;100616.53;;;7.93;100.00
75886;BME280;64561;44.018;10.144;2023-12-22T08:36:44;100609.06;;;7.97;100.00
75886;BME280;64561;44.018;10.144;2023-12-22T08:39:12;100615.22;;;8.06;100.00
75886;BME280;64561;44.018;10.144;2023-12-22T08:41:40;100615.75;;;8.22;100.00
75886;BME280;64561;44.018;10.144;2023-12-22T08:44:07;100614.25;;;8.29;100.00
75886;BME280;64561;44.018;10.144;2023-12-22T08:46:35;100614.59;;;8.40;100.00
75886;BME280;64561;44.018;10.144;2023-12-22T08:49:04;100616.56;;;8.49;100.00
75886;BME280;64561;44.018;10.144;2023-12-22T08:51:32;100621.78;;;8.83;100.00
75886;BME280;64561;44.018;10.144;2023-12-22T08:53:59;100623.09;;;9.01;100.00
75886;BME280;64561;44.018;10.144;2023-12-22T08:56:26;100629.97;;;9.03;100.00
75886;BME280;64561;44.018;10.144;2023-12-22T08:58:54;100630.13;;;9.09;100.00
75886;BME280;64561;44.018;10.144;2023-12-22T09:01:22;100626.88;;;9.15;100.00
75886;BME280;64561;44.018;10.144;2023-12-22T09:03:50;100637.50;;;9.30;100.00
75886;BME280;64561;44.018;10.144;2023-12-22T09:06:21;100646.09;;;9.34;100.00
75886;BME280;64561;44.018;10.144;2023-12-22T09:08:49;100644.53;;;9.39;100.00
75886;BME280;64561;44.018;10.144;2023-12-22T09:11:18;100644.53;;;9.39;100.00
75886;BME280;64561;44.018;10.144;2023-12-22T09:13:46;100649.63;;;9.39;100.00
75886;BME280;64561;44.018;10.144;2023-12-22T09:16:13;100658.19;;;9.41;100.00
75886;BME280;64561;44.018;10.144;2023-12-22T09:18:43;100652.28;;;9.42;100.00
75886;BME280;64561;44.018;10.144;2023-12-22T09:21:12;100659.16;;;9.45;100.00
75886;BME280;64561;44.018;10.144;2023-12-22T09:23:39;100664.44;;;9.52;100.00
75886;BME280;64561;44.018;10.144;2023-12-22T09:26:06;100662.91;;;9.59;100.00
75886;BME280;64561;44.018;10.144;2023-12-22T09:28:34;100665.66;;;9.67;100.00
75886;BME280;64561;44.018;10.144;2023-12-22T09:31:02;100676.25;;;9.82;100.00
75886;BME280;64561;44.018;10.144;2023-12-22T09:33:32;100676.50;;;9.93;100.00
75886;BME280;64561;44.018;10.144;2023-12-22T09:35:59;100680.97;;;10.01;100.00
75886;BME280;64561;44.018;10.144;2023-12-22T09:38:26;100682.28;;;10.20;100.00
75886;BME280;64561;44.018;10.144;2023-12-22T09:40:55;100688.56;;;10.33;100.00
75886;BME280;64561;44.018;10.144;2023-12-22T09:43:23;100688.78;;;10.44;100.00
75886;BME280;64561;44.018;10.144;2023-12-22T09:45:51;100676.03;;;10.45;100.00
75886;BME280;64561;44.018;10.144;2023-12-22T09:48:21;100667.59;;;10.49;100.00
75886;BME280;64561;44.018;10.144;2023-12-22T09:50:54;100667.03;;;10.63;100.00
75886;BME280;64561;44.018;10.144;2023-12-22T09:53:22;100662.25;;;10.80;100.00
75886;BME280;64561;44.018;10.144;2023-12-22T09:55:52;100655.72;;;10.94;100.00
75886;BME280;64561;44.018;10.144;2023-12-22T09:58:21;100673.28;;;11.19;100.00
75886;BME280;64561;44.018;10.144;2023-12-22T10:00:49;100672.97;;;11.50;100.00
75886;BME280;64561;44.018;10.144;2023-12-22T10:03:19;100668.16;;;11.68;100.00
75886;BME280;64561;44.018;10.144;2023-12-22T10:05:47;100669.19;;;11.78;100.00
75886;BME280;64561;44.018;10.144;2023-12-22T10:08:14;100658.91;;;11.78;100.00
75886;BME280;64561;44.018;10.144;2023-12-22T10:10:43;100655.38;;;11.70;100.00
75886;BME280;64561;44.018;10.144;2023-12-22T10:13:11;100662.13;;;11.64;100.00
75886;BME280;64561;44.018;10.144;2023-12-22T10:15:40;100649.22;;;11.60;100.00
75886;BME280;64561;44.018;10.144;2023-12-22T10:18:10;100644.94;;;11.59;100.00
75886;BME280;64561;44.018;10.144;2023-12-22T10:20:38;100628.63;;;11.54;100.00
75886;BME280;64561;44.018;10.144;2023-12-22T10:23:05;100641.72;;;11.71;100.00
75886;BME280;64561;44.018;10.144;2023-12-22T10:25:33;100632.66;;;11.89;100.00
75886;BME280;64561;44.018;10.144;2023-12-22T10:28:00;100625.91;;;11.96;100.00
75886;BME280;64561;44.018;10.144;2023-12-22T10:30:28;100618.09;;;11.87;100.00
75886;BME280;64561;44.018;10.144;2023-12-22T10:32:56;100605.47;;;12.02;100.00
75886;BME280;64561;44.018;10.144;2023-12-22T10:35:23;100596.16;;;12.07;100.00
75886;BME280;64561;44.018;10.144;2023-12-22T10:37:50;100603.16;;;12.19;100.00
75886;BME280;64561;44.018;10.144;2023-12-22T10:40:21;100593.84;;;12.27;100.00
75886;BME280;64561;44.018;10.144;2023-12-22T10:42:50;100613.56;;;12.30;100.00
75886;BME280;64561;44.018;10.144;2023-12-22T10:45:18;100601.84;;;12.50;100.00
75886;BME280;64561;44.018;10.144;2023-12-22T10:47:48;100599.44;;;12.61;100.00
75886;BME280;64561;44.018;10.144;2023-12-22T10:50:19;100600.22;;;12.57;100.00
75886;BME280;64561;44.018;10.144;2023-12-22T10:52:50;100606.94;;;12.47;100.00
75886;BME280;64561;44.018;10.144;2023-12-22T10:55:19;100607.72;;;12.42;100.00
75886;BME280;64561;44.018;10.144;2023-12-22T10:57:46;100612.09;;;12.49;100.00
75886;BME280;64561;44.018;10.144;2023-12-22T11:00:16;100614.69;;;12.50;100.00
75886;BME280;64561;44.018;10.144;2023-12-22T11:02:47;100612.94;;;12.46;100.00
75886;BME280;64561;44.018;10.144;2023-12-22T11:05:21;100605.22;;;12.46;100.00
75886;BME280;64561;44.018;10.144;2023-12-22T11:07:54;100602.84;;;12.62;100.00
75886;BME280;64561;44.018;10.144;2023-12-22T11:10:22;100602.09;;;12.70;100.00
75886;BME280;64561;44.018;10.144;2023-12-22T11:12:50;100592.69;;;12.71;100.00
75886;BME280;64561;44.018;10.144;2023-12-22T11:15:18;100597.78;;;12.69;100.00
75886;BME280;64561;44.018;10.144;2023-12-22T11:17:48;100582.50;;;12.80;100.00
75886;BME280;64561;44.018;10.144;2023-12-22T11:20:19;100588.53;;;12.84;98.96
75886;BME280;64561;44.018;10.144;2023-12-22T11:22:48;100584.94;;;12.69;100.00
75886;BME280;64561;44.018;10.144;2023-12-22T11:25:18;100576.47;;;12.73;99.91
75886;BME280;64561;44.018;10.144;2023-12-22T11:27:46;100584.13;;;12.72;97.98
75886;BME280;64561;44.018;10.144;2023-12-22T11:30:16;100583.22;;;12.67;99.10
75886;BME280;64561;44.018;10.144;2023-12-22T11:32:44;100576.25;;;12.55;100.00
75886;BME280;64561;44.018;10.144;2023-12-22T11:35:12;100583.06;;;12.53;100.00
75886;BME280;64561;44.018;10.144;2023-12-22T11:37:42;100591.66;;;12.56;100.00
75886;BME280;64561;44.018;10.144;2023-12-22T11:40:10;100587.53;;;12.71;100.00
75886;BME280;64561;44.018;10.144;2023-12-22T11:42:41;100578.25;;;12.82;100.00
75886;BME280;64561;44.018;10.144;2023-12-22T11:45:14;100572.38;;;12.91;98.44
75886;BME280;64561;44.018;10.144;2023-12-22T11:47:44;100577.56;;;12.97;99.23
75886;BME280;64561;44.018;10.144;2023-12-22T11:50:28;100568.28;;;13.13;97.44
75886;BME280;64561;44.018;10.144;2023-12-22T11:52:55;100552.13;;;13.24;98.21
75886;BME280;64561;44.018;10.144;2023-12-22T11:56:01;100541.00;;;13.24;97.63
75886;BME280;64561;44.018;10.144;2023-12-22T11:58:36;100537.53;;;13.22;98.24
75886;BME280;64561;44.018;10.144;2023-12-22T12:01:13;100534.09;;;13.18;96.84
75886;BME280;64561;44.018;10.144;2023-12-22T12:04:03;100511.84;;;13.23;96.88
75886;BME280;64561;44.018;10.144;2023-12-22T12:06:33;100534.94;;;13.19;96.77
75886;BME280;64561;44.018;10.144;2023-12-22T12:09:05;100547.66;;;13.05;97.96
75886;BME280;64561;44.018;10.144;2023-12-22T12:14:29;100554.50;;;13.04;100.00
75886;BME280;64561;44.018;10.144;2023-12-22T12:17:08;100551.94;;;13.04;98.77
75886;BME280;64561;44.018;10.144;2023-12-22T12:19:40;100543.44;;;13.10;99.68
75886;BME280;64561;44.018;10.144;2023-12-22T12:22:13;100544.47;;;13.27;98.86
75886;BME280;64561;44.018;10.144;2023-12-22T12:24:41;100529.88;;;13.26;98.28
75886;BME280;64561;44.018;10.144;2023-12-22T12:27:09;100535.22;;;13.48;97.18
75886;BME280;64561;44.018;10.144;2023-12-22T12:29:36;100526.69;;;13.58;96.80
75886;BME280;64561;44.018;10.144;2023-12-22T12:32:05;100518.94;;;13.52;97.15
75886;BME280;64561;44.018;10.144;2023-12-22T12:34:35;100521.56;;;13.58;97.04
75886;BME280;64561;44.018;10.144;2023-12-22T12:37:03;100523.34;;;13.68;96.18
75886;BME280;64561;44.018;10.144;2023-12-22T12:39:34;100513.00;;;13.59;95.57
75886;BME280;64561;44.018;10.144;2023-12-22T12:42:06;100516.41;;;13.58;96.60
75886;BME280;64561;44.018;10.144;2023-12-22T12:44:35;100523.25;;;13.56;96.51
75886;BME280;64561;44.018;10.144;2023-12-22T12:47:13;100521.63;;;13.66;96.15
75886;BME280;64561;44.018;10.144;2023-12-22T12:49:41;100530.22;;;13.69;94.76
75886;BME280;64561;44.018;10.144;2023-12-22T12:52:13;100537.97;;;13.76;95.38